Ackley, IA

5:21 PM CDT on July 23, 2016 (GMT -0500)
Iowa Falls | | Change Station

Elev 1129 ft 42.53 °N, 93.26 °W | Updated 10 seconds ago

Clear
Clear
83.1 °F
Feels Like 93 °F
N
1.8
Wind Variable Wind from East
Gusts 2.5 mph

Today
High -- | Low -- °F
--% Chance of Precip.
Yesterday
High -- | Low -- °F
Precip. -- in
Pressure 29.86 in
Visibility 10.0 miles
Clouds Clear
Heat Index 93 °F
Dew Point 78 °F
Humidity 83%
Rainfall 0.09 in
Snow Depth Not available.
5:55 AM 8:41 PM
Waning Gibbous, 82% visible
METAR KIFA 232215Z AUTO 11007KT 10SM CLR 30/26 A2986 RMK AO2 T02950259
Pressure 29.86 in
Visibility 10.0 miles
Clouds Clear
Heat Index 93 °F
Dew Point 78 °F
Humidity 83%
Rainfall 0.09 in
Snow Depth Not available.
5:55 AM 8:41 PM
Waning Gibbous, 82% visible
METAR KIFA 232215Z AUTO 11007KT 10SM CLR 30/26 A2986 RMK AO2 T02950259

10-Day Weather Forecast

Almanac

Astronomy

Jul. 23, 2016 Rise Set
Actual Time
Civil Twilight
Nautical Twilight
Astronomical Twilight
Moon
Length of Visible Light
Length of Day
Tomorrow will be .
, % of the Moon is Illuminated

Today's Extremes

State Highs State Lows

Community

WunderPhotos

Upload Photos

1,926,948 photos uploaded!

WunderBlog® & News

Nearby

Air Quality

  Air Quality AQ Index Pollutant
Not available.

Snow Depth

Station Depth Elevation

Earthquake Activity

City Distance Mag. Time & Date
Minimum magnitude displayed is 2.5.

Coastal Water Temperatures

Place Temperature

Stations

Nearby Weather Stations

Station Location Temp. Windchill Dew Point Humidity Wind Precip. Elev Updated Type
                   

Watches & Warnings

There are currently no watches in effect.